Terminal Aerodrome Forecast
Issued by NWS Boston, MA

Home | Current Version | Previous Version | Text Only | Print | Product List | Glossary On
Versions: 1 2 3 4 5 6 7 8 9 10 11 12 13 14 15 16 17 18 19
000
FTUS41 KBOX 182332
TAFORH
TAF
KORH 182332Z 1900/1924 19009KT 2SM -RA BR OVC002
     FM190600 22005KT 5SM BR OVC015
     FM191000 27004KT 4SM BR OVC010
     FM191300 VRB03KT P6SM BKN020
     FM191400 VRB03KT P6SM SCT020
     FM191700 26007KT P6SM FEW050=

USA.gov is the U.S. government's official web portal to all federal, state and local government web resources and services.